sensor_id;sensor_type;location;lat;lon;timestamp;P1;durP1;ratioP1;P2;durP2;ratioP2
26774;SDS011;14362;51.902;7.626;2024-01-10T00:01:22;10.27;;;4.85;;
26774;SDS011;14362;51.902;7.626;2024-01-10T00:05:28;9.80;;;4.50;;
26774;SDS011;14362;51.902;7.626;2024-01-10T00:09:29;8.00;;;4.53;;
26774;SDS011;14362;51.902;7.626;2024-01-10T00:13:31;10.73;;;4.85;;
26774;SDS011;14362;51.902;7.626;2024-01-10T00:17:33;10.77;;;5.10;;
26774;SDS011;14362;51.902;7.626;2024-01-10T00:21:36;12.65;;;5.22;;
26774;SDS011;14362;51.902;7.626;2024-01-10T00:25:37;10.65;;;4.90;;
26774;SDS011;14362;51.902;7.626;2024-01-10T00:29:39;10.30;;;5.05;;
26774;SDS011;14362;51.902;7.626;2024-01-10T00:33:40;10.63;;;4.88;;
26774;SDS011;14362;51.902;7.626;2024-01-10T00:37:43;8.90;;;4.28;;
26774;SDS011;14362;51.902;7.626;2024-01-10T00:41:44;8.93;;;4.88;;
26774;SDS011;14362;51.902;7.626;2024-01-10T00:45:45;11.57;;;5.57;;
26774;SDS011;14362;51.902;7.626;2024-01-10T00:49:47;11.52;;;5.72;;
26774;SDS011;14362;51.902;7.626;2024-01-10T00:53:50;9.50;;;5.18;;
26774;SDS011;14362;51.902;7.626;2024-01-10T00:57:51;8.68;;;4.60;;
26774;SDS011;14362;51.902;7.626;2024-01-10T01:01:52;9.15;;;4.32;;
26774;SDS011;14362;51.902;7.626;2024-01-10T01:05:54;13.55;;;5.85;;
26774;SDS011;14362;51.902;7.626;2024-01-10T01:09:56;12.55;;;4.90;;
26774;SDS011;14362;51.902;7.626;2024-01-10T01:13:58;10.10;;;4.97;;
26774;SDS011;14362;51.902;7.626;2024-01-10T01:17:59;13.80;;;5.70;;
26774;SDS011;14362;51.902;7.626;2024-01-10T01:22:01;11.13;;;4.68;;
26774;SDS011;14362;51.902;7.626;2024-01-10T01:26:03;10.10;;;5.25;;
26774;SDS011;14362;51.902;7.626;2024-01-10T01:30:05;15.95;;;5.50;;
26774;SDS011;14362;51.902;7.626;2024-01-10T01:34:08;10.88;;;4.90;;
26774;SDS011;14362;51.902;7.626;2024-01-10T01:38:09;17.90;;;6.43;;
26774;SDS011;14362;51.902;7.626;2024-01-10T01:42:12;11.00;;;5.20;;
26774;SDS011;14362;51.902;7.626;2024-01-10T01:46:13;9.43;;;4.38;;
26774;SDS011;14362;51.902;7.626;2024-01-10T01:50:15;13.10;;;4.93;;
26774;SDS011;14362;51.902;7.626;2024-01-10T01:54:16;10.10;;;4.78;;
26774;SDS011;14362;51.902;7.626;2024-01-10T01:58:19;11.40;;;5.25;;
26774;SDS011;14362;51.902;7.626;2024-01-10T02:02:21;14.02;;;5.82;;
26774;SDS011;14362;51.902;7.626;2024-01-10T02:06:24;8.65;;;4.82;;
26774;SDS011;14362;51.902;7.626;2024-01-10T02:10:25;10.52;;;4.82;;
26774;SDS011;14362;51.902;7.626;2024-01-10T02:14:28;8.55;;;4.90;;
26774;SDS011;14362;51.902;7.626;2024-01-10T02:18:30;10.70;;;5.25;;
26774;SDS011;14362;51.902;7.626;2024-01-10T02:22:31;13.95;;;5.38;;
26774;SDS011;14362;51.902;7.626;2024-01-10T02:26:34;12.73;;;5.68;;
26774;SDS011;14362;51.902;7.626;2024-01-10T02:30:36;8.52;;;4.15;;
26774;SDS011;14362;51.902;7.626;2024-01-10T02:34:37;11.43;;;5.28;;
26774;SDS011;14362;51.902;7.626;2024-01-10T02:38:38;11.85;;;5.72;;
26774;SDS011;14362;51.902;7.626;2024-01-10T02:42:41;10.73;;;5.38;;
26774;SDS011;14362;51.902;7.626;2024-01-10T02:46:43;11.57;;;5.38;;
26774;SDS011;14362;51.902;7.626;2024-01-10T02:50:44;12.02;;;5.95;;
26774;SDS011;14362;51.902;7.626;2024-01-10T02:54:45;11.23;;;4.88;;
26774;SDS011;14362;51.902;7.626;2024-01-10T02:58:48;10.95;;;5.07;;
26774;SDS011;14362;51.902;7.626;2024-01-10T03:02:50;13.40;;;6.03;;
26774;SDS011;14362;51.902;7.626;2024-01-10T03:06:51;12.48;;;6.25;;
26774;SDS011;14362;51.902;7.626;2024-01-10T03:10:52;13.00;;;5.55;;
26774;SDS011;14362;51.902;7.626;2024-01-10T03:14:55;10.02;;;5.53;;
26774;SDS011;14362;51.902;7.626;2024-01-10T03:18:57;17.35;;;6.68;;
26774;SDS011;14362;51.902;7.626;2024-01-10T03:22:58;10.57;;;6.28;;
26774;SDS011;14362;51.902;7.626;2024-01-10T03:27:00;13.15;;;6.32;;
26774;SDS011;14362;51.902;7.626;2024-01-10T03:31:02;9.75;;;5.38;;
26774;SDS011;14362;51.902;7.626;2024-01-10T03:35:04;10.05;;;5.63;;
26774;SDS011;14362;51.902;7.626;2024-01-10T03:39:06;11.65;;;5.82;;
26774;SDS011;14362;51.902;7.626;2024-01-10T03:43:08;13.77;;;5.85;;
26774;SDS011;14362;51.902;7.626;2024-01-10T03:47:11;11.98;;;6.05;;
26774;SDS011;14362;51.902;7.626;2024-01-10T03:51:13;16.50;;;6.90;;
26774;SDS011;14362;51.902;7.626;2024-01-10T03:55:14;18.00;;;6.30;;
26774;SDS011;14362;51.902;7.626;2024-01-10T03:59:16;12.10;;;5.25;;
26774;SDS011;14362;51.902;7.626;2024-01-10T04:03:18;15.00;;;6.28;;
26774;SDS011;14362;51.902;7.626;2024-01-10T04:07:20;18.20;;;6.72;;
26774;SDS011;14362;51.902;7.626;2024-01-10T04:11:22;12.15;;;6.78;;
26774;SDS011;14362;51.902;7.626;2024-01-10T04:15:24;14.95;;;5.78;;
26774;SDS011;14362;51.902;7.626;2024-01-10T04:19:27;12.30;;;6.35;;
26774;SDS011;14362;51.902;7.626;2024-01-10T04:23:28;12.02;;;5.95;;
26774;SDS011;14362;51.902;7.626;2024-01-10T04:27:30;12.75;;;5.78;;
26774;SDS011;14362;51.902;7.626;2024-01-10T04:31:32;17.88;;;6.88;;
26774;SDS011;14362;51.902;7.626;2024-01-10T04:35:34;13.27;;;6.82;;
26774;SDS011;14362;51.902;7.626;2024-01-10T04:39:36;13.82;;;6.40;;
26774;SDS011;14362;51.902;7.626;2024-01-10T04:43:40;13.60;;;5.93;;
26774;SDS011;14362;51.902;7.626;2024-01-10T04:47:41;19.15;;;7.03;;
26774;SDS011;14362;51.902;7.626;2024-01-10T04:51:46;13.02;;;6.40;;
26774;SDS011;14362;51.902;7.626;2024-01-10T04:55:48;21.00;;;6.72;;
26774;SDS011;14362;51.902;7.626;2024-01-10T04:59:49;13.55;;;5.85;;
26774;SDS011;14362;51.902;7.626;2024-01-10T05:03:50;13.25;;;6.68;;
26774;SDS011;14362;51.902;7.626;2024-01-10T05:07:53;16.17;;;6.53;;
26774;SDS011;14362;51.902;7.626;2024-01-10T05:11:55;14.35;;;6.30;;
26774;SDS011;14362;51.902;7.626;2024-01-10T05:15:56;16.77;;;6.53;;
26774;SDS011;14362;51.902;7.626;2024-01-10T05:19:58;16.35;;;6.15;;
26774;SDS011;14362;51.902;7.626;2024-01-10T05:24:01;13.85;;;7.15;;
26774;SDS011;14362;51.902;7.626;2024-01-10T05:28:03;13.80;;;6.82;;
26774;SDS011;14362;51.902;7.626;2024-01-10T05:32:05;11.20;;;6.13;;
26774;SDS011;14362;51.902;7.626;2024-01-10T05:36:07;16.80;;;6.35;;
26774;SDS011;14362;51.902;7.626;2024-01-10T05:40:13;13.60;;;6.90;;
26774;SDS011;14362;51.902;7.626;2024-01-10T05:44:14;14.95;;;7.85;;
26774;SDS011;14362;51.902;7.626;2024-01-10T05:48:15;16.45;;;7.32;;
26774;SDS011;14362;51.902;7.626;2024-01-10T05:52:17;19.48;;;7.90;;
26774;SDS011;14362;51.902;7.626;2024-01-10T05:56:20;18.08;;;7.78;;
26774;SDS011;14362;51.902;7.626;2024-01-10T06:00:21;13.77;;;6.72;;
26774;SDS011;14362;51.902;7.626;2024-01-10T06:04:23;19.45;;;7.85;;
26774;SDS011;14362;51.902;7.626;2024-01-10T06:08:25;18.08;;;7.15;;
26774;SDS011;14362;51.902;7.626;2024-01-10T06:12:29;16.90;;;7.30;;
26774;SDS011;14362;51.902;7.626;2024-01-10T06:16:31;16.98;;;7.10;;
26774;SDS011;14362;51.902;7.626;2024-01-10T06:20:32;13.45;;;7.00;;
26774;SDS011;14362;51.902;7.626;2024-01-10T06:24:35;17.77;;;7.65;;
26774;SDS011;14362;51.902;7.626;2024-01-10T06:28:39;14.80;;;7.68;;
26774;SDS011;14362;51.902;7.626;2024-01-10T06:32:41;17.02;;;8.48;;
26774;SDS011;14362;51.902;7.626;2024-01-10T06:36:42;15.15;;;6.90;;
26774;SDS011;14362;51.902;7.626;2024-01-10T06:40:44;17.98;;;7.90;;
26774;SDS011;14362;51.902;7.626;2024-01-10T06:44:48;16.60;;;8.10;;
26774;SDS011;14362;51.902;7.626;2024-01-10T06:48:50;18.08;;;8.60;;
26774;SDS011;14362;51.902;7.626;2024-01-10T06:52:51;20.10;;;9.20;;
26774;SDS011;14362;51.902;7.626;2024-01-10T06:56:53;18.35;;;8.68;;
26774;SDS011;14362;51.902;7.626;2024-01-10T07:00:55;18.45;;;8.75;;
26774;SDS011;14362;51.902;7.626;2024-01-10T07:04:57;20.85;;;8.80;;
26774;SDS011;14362;51.902;7.626;2024-01-10T07:08:58;18.77;;;9.07;;
26774;SDS011;14362;51.902;7.626;2024-01-10T07:13:00;23.40;;;8.82;;
26774;SDS011;14362;51.902;7.626;2024-01-10T07:17:06;18.73;;;8.53;;
26774;SDS011;14362;51.902;7.626;2024-01-10T07:21:08;19.77;;;8.38;;
26774;SDS011;14362;51.902;7.626;2024-01-10T07:25:10;23.63;;;10.20;;
26774;SDS011;14362;51.902;7.626;2024-01-10T07:29:14;23.60;;;9.15;;
26774;SDS011;14362;51.902;7.626;2024-01-10T07:33:16;22.45;;;9.63;;
26774;SDS011;14362;51.902;7.626;2024-01-10T07:37:18;17.70;;;8.50;;
26774;SDS011;14362;51.902;7.626;2024-01-10T07:41:22;26.90;;;9.57;;
26774;SDS011;14362;51.902;7.626;2024-01-10T07:45:24;21.40;;;8.98;;
26774;SDS011;14362;51.902;7.626;2024-01-10T07:49:27;22.48;;;9.43;;
26774;SDS011;14362;51.902;7.626;2024-01-10T07:53:30;24.65;;;9.07;;
26774;SDS011;14362;51.902;7.626;2024-01-10T07:57:31;24.35;;;9.88;;
26774;SDS011;14362;51.902;7.626;2024-01-10T08:01:33;23.45;;;9.80;;
26774;SDS011;14362;51.902;7.626;2024-01-10T08:05:36;19.92;;;8.52;;
26774;SDS011;14362;51.902;7.626;2024-01-10T08:09:38;22.48;;;8.85;;
26774;SDS011;14362;51.902;7.626;2024-01-10T08:13:39;21.02;;;10.32;;
26774;SDS011;14362;51.902;7.626;2024-01-10T08:17:41;20.08;;;9.35;;
26774;SDS011;14362;51.902;7.626;2024-01-10T08:21:44;21.05;;;9.50;;
26774;SDS011;14362;51.902;7.626;2024-01-10T08:25:46;26.02;;;10.98;;
26774;SDS011;14362;51.902;7.626;2024-01-10T08:29:47;22.30;;;10.35;;
26774;SDS011;14362;51.902;7.626;2024-01-10T08:33:48;22.95;;;9.27;;
26774;SDS011;14362;51.902;7.626;2024-01-10T08:37:51;27.92;;;10.38;;
26774;SDS011;14362;51.902;7.626;2024-01-10T08:41:53;20.42;;;9.65;;
26774;SDS011;14362;51.902;7.626;2024-01-10T08:45:55;29.60;;;11.63;;
26774;SDS011;14362;51.902;7.626;2024-01-10T08:49:57;27.25;;;9.95;;
26774;SDS011;14362;51.902;7.626;2024-01-10T08:54:00;20.95;;;10.25;;
26774;SDS011;14362;51.902;7.626;2024-01-10T08:58:03;20.08;;;9.70;;
26774;SDS011;14362;51.902;7.626;2024-01-10T09:02:05;23.17;;;9.50;;
26774;SDS011;14362;51.902;7.626;2024-01-10T09:06:07;21.65;;;10.65;;
26774;SDS011;14362;51.902;7.626;2024-01-10T09:10:11;22.85;;;10.27;;
26774;SDS011;14362;51.902;7.626;2024-01-10T09:14:12;26.85;;;11.05;;
26774;SDS011;14362;51.902;7.626;2024-01-10T09:18:13;21.00;;;10.20;;
26774;SDS011;14362;51.902;7.626;2024-01-10T09:22:15;23.25;;;10.07;;
26774;SDS011;14362;51.902;7.626;2024-01-10T09:26:18;22.52;;;10.15;;
26774;SDS011;14362;51.902;7.626;2024-01-10T09:30:19;19.80;;;10.30;;
26774;SDS011;14362;51.902;7.626;2024-01-10T09:34:20;20.08;;;10.05;;
26774;SDS011;14362;51.902;7.626;2024-01-10T09:38:22;22.45;;;10.38;;
26774;SDS011;14362;51.902;7.626;2024-01-10T09:42:24;25.20;;;11.52;;
26774;SDS011;14362;51.902;7.626;2024-01-10T09:46:26;21.73;;;10.50;;
26774;SDS011;14362;51.902;7.626;2024-01-10T09:50:30;22.83;;;9.88;;
26774;SDS011;14362;51.902;7.626;2024-01-10T09:54:31;27.60;;;10.45;;
26774;SDS011;14362;51.902;7.626;2024-01-10T09:58:34;23.17;;;10.02;;
26774;SDS011;14362;51.902;7.626;2024-01-10T10:02:39;23.02;;;10.60;;
26774;SDS011;14362;51.902;7.626;2024-01-10T10:06:41;22.10;;;10.73;;
26774;SDS011;14362;51.902;7.626;2024-01-10T10:10:42;24.00;;;9.60;;
26774;SDS011;14362;51.902;7.626;2024-01-10T10:14:46;23.65;;;9.93;;
26774;SDS011;14362;51.902;7.626;2024-01-10T10:18:47;24.13;;;11.25;;
26774;SDS011;14362;51.902;7.626;2024-01-10T10:23:00;23.83;;;11.68;;
26774;SDS011;14362;51.902;7.626;2024-01-10T10:27:05;27.30;;;10.52;;
26774;SDS011;14362;51.902;7.626;2024-01-10T10:31:10;25.17;;;11.50;;
26774;SDS011;14362;51.902;7.626;2024-01-10T10:35:12;26.40;;;11.65;;
26774;SDS011;14362;51.902;7.626;2024-01-10T10:39:15;22.73;;;10.60;;
26774;SDS011;14362;51.902;7.626;2024-01-10T10:43:18;25.27;;;11.18;;
26774;SDS011;14362;51.902;7.626;2024-01-10T10:47:22;20.42;;;10.43;;
26774;SDS011;14362;51.902;7.626;2024-01-10T10:51:27;24.38;;;11.52;;
26774;SDS011;14362;51.902;7.626;2024-01-10T10:55:33;26.63;;;11.95;;
26774;SDS011;14362;51.902;7.626;2024-01-10T10:59:37;23.60;;;11.25;;
26774;SDS011;14362;51.902;7.626;2024-01-10T11:03:41;22.08;;;11.48;;
26774;SDS011;14362;51.902;7.626;2024-01-10T11:07:44;25.15;;;11.52;;
26774;SDS011;14362;51.902;7.626;2024-01-10T11:11:50;25.65;;;11.95;;
26774;SDS011;14362;51.902;7.626;2024-01-10T11:20:56;25.77;;;12.90;;
26774;SDS011;14362;51.902;7.626;2024-01-10T11:25:08;26.15;;;11.13;;
26774;SDS011;14362;51.902;7.626;2024-01-10T11:29:10;23.92;;;11.50;;
26774;SDS011;14362;51.902;7.626;2024-01-10T11:33:19;21.63;;;10.88;;
26774;SDS011;14362;51.902;7.626;2024-01-10T11:37:24;21.40;;;10.80;;
26774;SDS011;14362;51.902;7.626;2024-01-10T11:41:29;24.05;;;10.25;;
26774;SDS011;14362;51.902;7.626;2024-01-10T11:45:36;22.13;;;10.23;;
26774;SDS011;14362;51.902;7.626;2024-01-10T11:49:37;19.80;;;10.13;;
26774;SDS011;14362;51.902;7.626;2024-01-10T11:53:43;22.13;;;11.38;;
26774;SDS011;14362;51.902;7.626;2024-01-10T11:57:46;18.70;;;10.00;;
26774;SDS011;14362;51.902;7.626;2024-01-10T12:02:08;20.65;;;9.95;;
26774;SDS011;14362;51.902;7.626;2024-01-10T12:06:11;21.42;;;10.60;;
26774;SDS011;14362;51.902;7.626;2024-01-10T12:10:14;20.65;;;10.05;;
26774;SDS011;14362;51.902;7.626;2024-01-10T12:14:16;20.42;;;10.32;;
26774;SDS011;14362;51.902;7.626;2024-01-10T12:18:18;22.73;;;10.73;;
26774;SDS011;14362;51.902;7.626;2024-01-10T12:22:21;19.73;;;9.65;;
26774;SDS011;14362;51.902;7.626;2024-01-10T12:26:23;21.08;;;10.95;;
26774;SDS011;14362;51.902;7.626;2024-01-10T12:30:25;19.77;;;9.93;;
26774;SDS011;14362;51.902;7.626;2024-01-10T12:34:26;19.92;;;9.50;;
26774;SDS011;14362;51.902;7.626;2024-01-10T12:38:28;18.20;;;10.35;;
26774;SDS011;14362;51.902;7.626;2024-01-10T12:42:31;17.95;;;9.55;;
26774;SDS011;14362;51.902;7.626;2024-01-10T12:46:32;20.88;;;11.02;;
26774;SDS011;14362;51.902;7.626;2024-01-10T12:50:34;19.35;;;10.43;;
26774;SDS011;14362;51.902;7.626;2024-01-10T12:54:35;23.52;;;11.60;;
26774;SDS011;14362;51.902;7.626;2024-01-10T12:58:38;22.77;;;10.60;;
26774;SDS011;14362;51.902;7.626;2024-01-10T13:02:39;22.77;;;10.35;;
26774;SDS011;14362;51.902;7.626;2024-01-10T13:06:41;22.67;;;9.77;;
26774;SDS011;14362;51.902;7.626;2024-01-10T13:10:42;20.02;;;10.57;;
26774;SDS011;14362;51.902;7.626;2024-01-10T13:14:45;25.98;;;10.68;;
26774;SDS011;14362;51.902;7.626;2024-01-10T13:18:46;24.70;;;11.98;;
26774;SDS011;14362;51.902;7.626;2024-01-10T13:22:48;16.63;;;10.45;;
26774;SDS011;14362;51.902;7.626;2024-01-10T13:26:50;19.38;;;10.25;;
26774;SDS011;14362;51.902;7.626;2024-01-10T13:30:53;19.02;;;10.32;;
26774;SDS011;14362;51.902;7.626;2024-01-10T13:34:56;21.27;;;11.27;;
26774;SDS011;14362;51.902;7.626;2024-01-10T13:38:57;19.15;;;11.23;;
26774;SDS011;14362;51.902;7.626;2024-01-10T13:42:58;20.15;;;11.80;;
26774;SDS011;14362;51.902;7.626;2024-01-10T13:47:04;19.55;;;11.00;;
26774;SDS011;14362;51.902;7.626;2024-01-10T13:51:05;19.73;;;10.85;;
26774;SDS011;14362;51.902;7.626;2024-01-10T13:55:07;19.33;;;10.45;;
26774;SDS011;14362;51.902;7.626;2024-01-10T13:59:09;21.80;;;10.95;;
26774;SDS011;14362;51.902;7.626;2024-01-10T14:03:12;18.85;;;10.15;;
26774;SDS011;14362;51.902;7.626;2024-01-10T14:07:14;25.17;;;11.95;;
26774;SDS011;14362;51.902;7.626;2024-01-10T14:11:15;21.33;;;11.95;;
26774;SDS011;14362;51.902;7.626;2024-01-10T14:15:17;18.95;;;10.95;;
26774;SDS011;14362;51.902;7.626;2024-01-10T14:19:19;19.75;;;11.18;;
26774;SDS011;14362;51.902;7.626;2024-01-10T14:23:21;18.63;;;10.55;;
26774;SDS011;14362;51.902;7.626;2024-01-10T14:27:22;20.40;;;11.65;;
26774;SDS011;14362;51.902;7.626;2024-01-10T14:31:24;23.13;;;11.70;;
26774;SDS011;14362;51.902;7.626;2024-01-10T14:35:27;23.80;;;12.13;;
26774;SDS011;14362;51.902;7.626;2024-01-10T14:39:28;27.08;;;12.68;;
26774;SDS011;14362;51.902;7.626;2024-01-10T14:43:30;26.10;;;12.43;;
26774;SDS011;14362;51.902;7.626;2024-01-10T14:47:32;22.13;;;12.05;;
26774;SDS011;14362;51.902;7.626;2024-01-10T14:51:34;26.73;;;13.27;;
26774;SDS011;14362;51.902;7.626;2024-01-10T14:55:36;25.10;;;12.10;;
26774;SDS011;14362;51.902;7.626;2024-01-10T14:59:37;33.60;;;14.20;;
26774;SDS011;14362;51.902;7.626;2024-01-10T15:03:41;28.53;;;13.43;;
26774;SDS011;14362;51.902;7.626;2024-01-10T15:07:44;28.35;;;12.77;;
26774;SDS011;14362;51.902;7.626;2024-01-10T15:11:45;32.00;;;13.32;;
26774;SDS011;14362;51.902;7.626;2024-01-10T15:15:47;24.63;;;13.68;;
26774;SDS011;14362;51.902;7.626;2024-01-10T15:19:48;30.27;;;13.98;;
26774;SDS011;14362;51.902;7.626;2024-01-10T15:23:51;28.65;;;13.80;;
26774;SDS011;14362;51.902;7.626;2024-01-10T15:27:53;27.63;;;13.75;;
26774;SDS011;14362;51.902;7.626;2024-01-10T15:31:54;30.65;;;15.43;;
26774;SDS011;14362;51.902;7.626;2024-01-10T15:35:56;32.67;;;13.90;;
26774;SDS011;14362;51.902;7.626;2024-01-10T15:39:59;32.63;;;15.50;;
26774;SDS011;14362;51.902;7.626;2024-01-10T15:44:00;29.40;;;14.65;;
26774;SDS011;14362;51.902;7.626;2024-01-10T15:48:03;31.50;;;15.52;;
26774;SDS011;14362;51.902;7.626;2024-01-10T15:52:07;29.15;;;14.55;;
26774;SDS011;14362;51.902;7.626;2024-01-10T15:56:09;32.95;;;15.25;;
26774;SDS011;14362;51.902;7.626;2024-01-10T16:00:12;31.25;;;15.77;;
26774;SDS011;14362;51.902;7.626;2024-01-10T16:04:14;32.58;;;14.73;;
26774;SDS011;14362;51.902;7.626;2024-01-10T16:08:17;32.92;;;16.58;;
26774;SDS011;14362;51.902;7.626;2024-01-10T16:12:21;33.70;;;16.40;;
26774;SDS011;14362;51.902;7.626;2024-01-10T16:16:24;33.20;;;16.13;;
26774;SDS011;14362;51.902;7.626;2024-01-10T16:20:27;39.23;;;17.10;;
26774;SDS011;14362;51.902;7.626;2024-01-10T16:24:29;32.55;;;14.68;;
26774;SDS011;14362;51.902;7.626;2024-01-10T16:28:32;35.42;;;15.98;;
26774;SDS011;14362;51.902;7.626;2024-01-10T16:32:33;35.67;;;16.20;;
26774;SDS011;14362;51.902;7.626;2024-01-10T16:36:34;34.83;;;15.27;;
26774;SDS011;14362;51.902;7.626;2024-01-10T16:40:36;33.75;;;16.08;;
26774;SDS011;14362;51.902;7.626;2024-01-10T16:44:38;32.95;;;16.70;;
26774;SDS011;14362;51.902;7.626;2024-01-10T16:48:40;38.25;;;16.17;;
26774;SDS011;14362;51.902;7.626;2024-01-10T16:52:42;30.85;;;16.60;;
26774;SDS011;14362;51.902;7.626;2024-01-10T16:56:43;42.47;;;17.48;;
26774;SDS011;14362;51.902;7.626;2024-01-10T17:00:46;37.67;;;17.23;;
26774;SDS011;14362;51.902;7.626;2024-01-10T17:04:48;38.85;;;17.15;;
26774;SDS011;14362;51.902;7.626;2024-01-10T17:08:49;39.50;;;16.83;;
26774;SDS011;14362;51.902;7.626;2024-01-10T17:12:51;36.67;;;16.92;;
26774;SDS011;14362;51.902;7.626;2024-01-10T17:16:55;37.08;;;17.48;;
26774;SDS011;14362;51.902;7.626;2024-01-10T17:20:56;36.70;;;16.80;;
26774;SDS011;14362;51.902;7.626;2024-01-10T17:24:57;42.45;;;18.40;;
26774;SDS011;14362;51.902;7.626;2024-01-10T17:28:59;37.63;;;17.67;;
26774;SDS011;14362;51.902;7.626;2024-01-10T17:33:02;37.97;;;17.73;;
26774;SDS011;14362;51.902;7.626;2024-01-10T17:37:08;38.45;;;18.38;;
26774;SDS011;14362;51.902;7.626;2024-01-10T17:41:10;41.90;;;18.45;;
26774;SDS011;14362;51.902;7.626;2024-01-10T17:45:11;46.97;;;18.13;;
26774;SDS011;14362;51.902;7.626;2024-01-10T17:49:14;42.65;;;18.15;;
26774;SDS011;14362;51.902;7.626;2024-01-10T17:53:16;45.22;;;19.23;;
26774;SDS011;14362;51.902;7.626;2024-01-10T17:57:18;41.83;;;19.17;;
26774;SDS011;14362;51.902;7.626;2024-01-10T18:01:23;37.70;;;18.83;;
26774;SDS011;14362;51.902;7.626;2024-01-10T18:05:26;43.85;;;17.98;;
26774;SDS011;14362;51.902;7.626;2024-01-10T18:09:27;45.75;;;20.55;;
26774;SDS011;14362;51.902;7.626;2024-01-10T18:13:29;40.47;;;18.85;;
26774;SDS011;14362;51.902;7.626;2024-01-10T18:17:30;41.47;;;18.85;;
26774;SDS011;14362;51.902;7.626;2024-01-10T18:21:33;43.17;;;19.70;;
26774;SDS011;14362;51.902;7.626;2024-01-10T18:25:34;43.20;;;19.75;;
26774;SDS011;14362;51.902;7.626;2024-01-10T18:29:35;38.90;;;18.70;;
26774;SDS011;14362;51.902;7.626;2024-01-10T18:33:37;39.60;;;17.92;;
26774;SDS011;14362;51.902;7.626;2024-01-10T18:37:40;41.80;;;20.33;;
26774;SDS011;14362;51.902;7.626;2024-01-10T18:41:41;44.05;;;19.45;;
26774;SDS011;14362;51.902;7.626;2024-01-10T18:45:43;47.25;;;21.33;;
26774;SDS011;14362;51.902;7.626;2024-01-10T18:49:44;39.63;;;19.17;;
26774;SDS011;14362;51.902;7.626;2024-01-10T18:53:47;41.75;;;19.55;;
26774;SDS011;14362;51.902;7.626;2024-01-10T18:57:48;47.22;;;21.52;;
26774;SDS011;14362;51.902;7.626;2024-01-10T19:01:52;57.60;;;22.25;;
26774;SDS011;14362;51.902;7.626;2024-01-10T19:05:54;47.47;;;22.48;;
26774;SDS011;14362;51.902;7.626;2024-01-10T19:09:56;46.10;;;21.50;;
26774;SDS011;14362;51.902;7.626;2024-01-10T19:13:58;54.50;;;21.17;;
26774;SDS011;14362;51.902;7.626;2024-01-10T19:17:59;44.95;;;21.00;;
26774;SDS011;14362;51.902;7.626;2024-01-10T19:22:01;51.67;;;22.10;;
26774;SDS011;14362;51.902;7.626;2024-01-10T19:26:05;54.20;;;22.45;;
26774;SDS011;14362;51.902;7.626;2024-01-10T19:30:07;51.40;;;22.58;;
26774;SDS011;14362;51.902;7.626;2024-01-10T19:34:10;51.80;;;22.55;;
26774;SDS011;14362;51.902;7.626;2024-01-10T19:38:11;47.20;;;22.13;;
26774;SDS011;14362;51.902;7.626;2024-01-10T19:42:14;44.72;;;21.30;;
26774;SDS011;14362;51.902;7.626;2024-01-10T19:46:16;48.13;;;23.13;;
26774;SDS011;14362;51.902;7.626;2024-01-10T19:50:18;56.05;;;23.23;;
26774;SDS011;14362;51.902;7.626;2024-01-10T19:54:22;46.75;;;22.73;;
26774;SDS011;14362;51.902;7.626;2024-01-10T19:58:25;57.92;;;24.15;;
26774;SDS011;14362;51.902;7.626;2024-01-10T20:02:26;47.80;;;22.77;;
26774;SDS011;14362;51.902;7.626;2024-01-10T20:06:27;49.53;;;22.40;;
26774;SDS011;14362;51.902;7.626;2024-01-10T20:10:29;50.35;;;22.48;;
26774;SDS011;14362;51.902;7.626;2024-01-10T20:14:32;50.83;;;21.95;;
26774;SDS011;14362;51.902;7.626;2024-01-10T20:18:33;48.08;;;21.30;;
26774;SDS011;14362;51.902;7.626;2024-01-10T20:22:35;48.22;;;22.50;;
26774;SDS011;14362;51.902;7.626;2024-01-10T20:26:36;48.47;;;22.52;;
26774;SDS011;14362;51.902;7.626;2024-01-10T20:30:39;48.78;;;22.50;;
26774;SDS011;14362;51.902;7.626;2024-01-10T20:34:40;48.88;;;23.20;;
26774;SDS011;14362;51.902;7.626;2024-01-10T20:38:43;53.50;;;23.05;;
26774;SDS011;14362;51.902;7.626;2024-01-10T20:42:45;47.45;;;22.27;;
26774;SDS011;14362;51.902;7.626;2024-01-10T20:46:48;43.35;;;20.45;;
26774;SDS011;14362;51.902;7.626;2024-01-10T20:50:49;49.05;;;21.80;;
26774;SDS011;14362;51.902;7.626;2024-01-10T20:54:51;48.08;;;22.25;;
26774;SDS011;14362;51.902;7.626;2024-01-10T20:58:53;46.80;;;22.55;;
26774;SDS011;14362;51.902;7.626;2024-01-10T21:02:56;49.17;;;21.77;;
26774;SDS011;14362;51.902;7.626;2024-01-10T21:06:57;51.75;;;21.70;;
26774;SDS011;14362;51.902;7.626;2024-01-10T21:10:59;52.13;;;22.27;;
26774;SDS011;14362;51.902;7.626;2024-01-10T21:15:01;49.38;;;21.25;;
26774;SDS011;14362;51.902;7.626;2024-01-10T21:19:05;51.78;;;21.90;;
26774;SDS011;14362;51.902;7.626;2024-01-10T21:23:06;47.00;;;21.80;;
26774;SDS011;14362;51.902;7.626;2024-01-10T21:27:08;47.38;;;21.52;;
26774;SDS011;14362;51.902;7.626;2024-01-10T21:31:09;49.22;;;22.25;;
26774;SDS011;14362;51.902;7.626;2024-01-10T21:35:12;49.65;;;21.33;;
26774;SDS011;14362;51.902;7.626;2024-01-10T21:39:14;53.75;;;21.55;;
26774;SDS011;14362;51.902;7.626;2024-01-10T21:43:16;51.38;;;21.67;;
26774;SDS011;14362;51.902;7.626;2024-01-10T21:47:17;45.55;;;20.00;;
26774;SDS011;14362;51.902;7.626;2024-01-10T21:51:20;49.40;;;22.52;;
26774;SDS011;14362;51.902;7.626;2024-01-10T21:55:21;45.65;;;20.92;;
26774;SDS011;14362;51.902;7.626;2024-01-10T21:59:23;61.67;;;24.13;;
26774;SDS011;14362;51.902;7.626;2024-01-10T22:03:24;52.75;;;23.05;;
26774;SDS011;14362;51.902;7.626;2024-01-10T22:07:27;48.28;;;22.13;;
26774;SDS011;14362;51.902;7.626;2024-01-10T22:11:29;51.75;;;21.33;;
26774;SDS011;14362;51.902;7.626;2024-01-10T22:15:30;52.20;;;21.65;;
26774;SDS011;14362;51.902;7.626;2024-01-10T22:19:31;49.88;;;19.92;;
26774;SDS011;14362;51.902;7.626;2024-01-10T22:23:34;52.13;;;21.35;;
26774;SDS011;14362;51.902;7.626;2024-01-10T22:27:36;47.72;;;20.33;;
26774;SDS011;14362;51.902;7.626;2024-01-10T22:31:38;49.00;;;22.48;;
26774;SDS011;14362;51.902;7.626;2024-01-10T22:35:39;47.90;;;21.60;;
26774;SDS011;14362;51.902;7.626;2024-01-10T22:39:42;52.67;;;23.00;;
26774;SDS011;14362;51.902;7.626;2024-01-10T22:43:43;53.95;;;22.10;;
26774;SDS011;14362;51.902;7.626;2024-01-10T22:47:45;44.22;;;21.13;;
26774;SDS011;14362;51.902;7.626;2024-01-10T22:51:46;51.58;;;21.23;;
26774;SDS011;14362;51.902;7.626;2024-01-10T22:55:49;44.30;;;19.45;;
26774;SDS011;14362;51.902;7.626;2024-01-10T22:59:50;43.80;;;20.77;;
26774;SDS011;14362;51.902;7.626;2024-01-10T23:03:52;53.88;;;21.83;;
26774;SDS011;14362;51.902;7.626;2024-01-10T23:07:53;48.28;;;22.23;;
26774;SDS011;14362;51.902;7.626;2024-01-10T23:11:56;48.05;;;20.65;;
26774;SDS011;14362;51.902;7.626;2024-01-10T23:15:57;48.90;;;21.63;;
26774;SDS011;14362;51.902;7.626;2024-01-10T23:19:59;51.58;;;21.13;;
26774;SDS011;14362;51.902;7.626;2024-01-10T23:24:00;50.78;;;20.98;;
26774;SDS011;14362;51.902;7.626;2024-01-10T23:28:04;46.97;;;20.42;;
26774;SDS011;14362;51.902;7.626;2024-01-10T23:32:06;47.28;;;22.20;;
26774;SDS011;14362;51.902;7.626;2024-01-10T23:36:07;51.35;;;21.85;;
26774;SDS011;14362;51.902;7.626;2024-01-10T23:40:11;50.78;;;23.23;;
26774;SDS011;14362;51.902;7.626;2024-01-10T23:44:14;55.47;;;22.42;;
26774;SDS011;14362;51.902;7.626;2024-01-10T23:48:16;53.80;;;22.00;;